Holly, MI

10:58 AM EDT on August 28, 2016 (GMT -0400)
RoseTownshipTipsicoLake | | Change Station

Elev 1050 ft 42.71 °N, 83.67 °W | Updated 6 seconds ago

Overcast
Overcast
74.6 °F
Feels Like 73 °F
N
1.0
Wind Variable Wind from WNW
Gusts 4.0 mph

Today
High -- | Low -- °F
--% Chance of Precip.
Yesterday
High -- | Low -- °F
Precip. -- in
Pressure 30.19 in
Visibility 8.0 miles
Clouds Scattered Clouds 1000 ft
Mostly Cloudy 2500 ft
Mostly Cloudy 8500 ft
Overcast 23000 ft
Heat Index 73 °F
Dew Point 72 °F
Humidity 90%
Rainfall 0.02 in
Snow Depth Not available.
6:55 AM 8:14 PM
Waning Crescent, 15% visible
METAR KPTK 281453Z 28007KT 8SM SCT010 BKN025 BKN085 OVC230 25/22 A3020 RMK AO2 SLP221 T02500217 53010 $
Pressure 30.19 in
Visibility 8.0 miles
Clouds Scattered Clouds 1000 ft
Mostly Cloudy 2500 ft
Mostly Cloudy 8500 ft
Overcast 23000 ft
Heat Index 73 °F
Dew Point 72 °F
Humidity 90%
Rainfall 0.02 in
Snow Depth Not available.
6:55 AM 8:14 PM
Waning Crescent, 15% visible
METAR KPTK 281453Z 28007KT 8SM SCT010 BKN025 BKN085 OVC230 25/22 A3020 RMK AO2 SLP221 T02500217 53010 $

10-Day Weather Forecast

Almanac

Astronomy

Aug. 28, 2016 Rise Set
Actual Time
Civil Twilight
Nautical Twilight
Astronomical Twilight
Moon
Length of Visible Light
Length of Day
Tomorrow will be .
, % of the Moon is Illuminated

Today's Extremes

State Highs State Lows

Community

WunderPhotos

Upload Photos

1,935,579 photos uploaded!

WunderBlog® & News

Nearby

Air Quality

  Air Quality AQ Index Pollutant
Not available.

Snow Depth

Station Depth Elevation

Earthquake Activity

City Distance Mag. Time & Date
Minimum magnitude displayed is 2.5.

Coastal Water Temperatures

Place Temperature

Stations

Nearby Weather Stations

Station Location Temp. Windchill Dew Point Humidity Wind Precip. Elev Updated Type
                   

Watches & Warnings

There are currently no watches in effect.